createdAt,value
2022-12-28T00:00:19.619Z,73.25
2022-12-28T00:02:48.825Z,74.85
2022-12-28T00:05:20.825Z,71.15
2022-12-28T00:07:50.746Z,74.85
2022-12-28T00:10:19.732Z,70.07
2022-12-28T00:13:08.997Z,76.50
2022-12-28T00:15:39.227Z,71.78
2022-12-28T00:18:08.549Z,70.45
2022-12-28T00:20:37.708Z,71.57
2022-12-28T00:23:07.510Z,67.88
2022-12-28T00:25:37.688Z,73.47
2022-12-28T00:28:06.720Z,75.40
2022-12-28T00:30:36.953Z,69.30
2022-12-28T00:33:06.728Z,66.88
2022-12-28T00:35:36.642Z,69.95
2022-12-28T00:38:05.774Z,66.95
2022-12-28T00:40:35.034Z,70.05
2022-12-28T00:43:04.656Z,72.15
2022-12-28T00:45:34.273Z,67.93
2022-12-28T00:48:03.684Z,72.85
2022-12-28T00:50:33.872Z,66.07
2022-12-28T00:53:02.906Z,70.07
2022-12-28T00:55:33.026Z,66.72
2022-12-28T00:58:02.825Z,64.53
2022-12-28T01:00:33.052Z,67.93
2022-12-28T01:03:03.001Z,71.07
2022-12-28T01:05:33.334Z,67.20
2022-12-28T01:08:02.410Z,65.63
2022-12-28T01:10:31.629Z,64.43
2022-12-28T01:13:00.710Z,70.20
2022-12-28T01:15:30.242Z,72.80
2022-12-28T01:18:00.003Z,68.78
2022-12-28T01:20:29.723Z,73.70
2022-12-28T01:22:59.451Z,81.68
2022-12-28T01:25:29.313Z,70.05
2022-12-28T01:27:59.594Z,72.88
2022-12-28T01:30:32.275Z,77.80
2022-12-28T01:33:01.786Z,73.45
2022-12-28T01:35:32.064Z,78.55
2022-12-28T01:38:03.710Z,74.88
2022-12-28T01:40:33.112Z,79.20
2022-12-28T01:43:02.698Z,77.53
2022-12-28T01:45:32.442Z,76.97
2022-12-28T01:48:01.706Z,67.82
2022-12-28T01:50:37.574Z,69.13
2022-12-28T01:53:10.531Z,69.22
2022-12-28T01:55:42.047Z,65.43
2022-12-28T01:58:12.092Z,68.45
2022-12-28T02:00:42.393Z,68.70
2022-12-28T02:03:18.872Z,76.32
2022-12-28T02:05:50.580Z,68.68
2022-12-28T02:08:42.086Z,74.68
2022-12-28T02:11:13.305Z,69.50
2022-12-28T02:13:48.516Z,66.15
2022-12-28T02:16:18.946Z,68.80
2022-12-28T02:18:48.515Z,68.80
2022-12-28T02:21:20.160Z,65.93
2022-12-28T02:23:52.965Z,64.82
2022-12-28T02:26:35.222Z,63.17
2022-12-28T02:29:23.770Z,59.08
2022-12-28T02:32:04.636Z,61.90
2022-12-28T02:34:34.257Z,58.03
2022-12-28T02:37:05.829Z,62.08
2022-12-28T02:39:39.217Z,61.55
2022-12-28T02:42:12.341Z,67.88
2022-12-28T02:45:01.968Z,65.88
2022-12-28T02:47:51.435Z,64.32
2022-12-28T02:50:21.388Z,66.15
2022-12-28T02:52:58.544Z,63.10
2022-12-28T02:55:52.138Z,65.32
2022-12-28T02:58:35.475Z,70.28
2022-12-28T03:01:18.084Z,77.20
2022-12-28T03:03:48.258Z,78.05
2022-12-28T03:06:36.863Z,78.25
2022-12-28T03:09:08.076Z,81.30
2022-12-28T03:11:47.488Z,77.95
2022-12-28T03:14:49.423Z,73.20
2022-12-28T03:17:38.092Z,76.25
2022-12-28T03:20:29.483Z,69.88
2022-12-28T03:23:18.316Z,73.70
2022-12-28T03:26:06.393Z,68.75
2022-12-28T03:29:00.432Z,73.93
2022-12-28T03:31:36.336Z,71.97
2022-12-28T03:34:12.384Z,72.43
2022-12-28T03:36:55.665Z,70.70
2022-12-28T03:39:33.907Z,75.60
2022-12-28T03:42:27.067Z,74.40
2022-12-28T03:44:59.059Z,70.13
2022-12-28T03:47:30.622Z,72.78
2022-12-28T03:50:01.067Z,69.22
2022-12-28T03:52:30.704Z,73.80
2022-12-28T03:55:00.652Z,69.57
2022-12-28T03:57:30.445Z,73.35
2022-12-28T04:00:00.051Z,71.80
2022-12-28T04:02:30.953Z,72.68
2022-12-28T04:07:52.643Z,71.13
2022-12-28T04:10:23.088Z,67.75
2022-12-28T04:12:57.119Z,75.72
2022-12-28T04:15:31.480Z,73.38
2022-12-28T04:18:03.811Z,65.72
2022-12-28T04:20:33.778Z,70.93
2022-12-28T04:23:04.131Z,69.53
2022-12-28T04:25:35.323Z,68.80
2022-12-28T04:28:04.531Z,73.10
2022-12-28T04:30:54.669Z,69.35
2022-12-28T04:33:25.480Z,69.45
2022-12-28T04:35:56.807Z,70.28
2022-12-28T04:38:27.394Z,75.90
2022-12-28T04:40:57.859Z,74.28
2022-12-28T04:43:27.352Z,77.68
2022-12-28T04:46:07.750Z,73.57
2022-12-28T04:48:38.735Z,84.32
2022-12-28T04:51:10.119Z,75.10
2022-12-28T04:56:58.841Z,76.78
2022-12-28T04:59:28.432Z,82.78
2022-12-28T05:01:58.112Z,76.35
2022-12-28T05:04:28.038Z,77.60
2022-12-28T05:07:00.840Z,76.90
2022-12-28T05:09:39.589Z,75.90
2022-12-28T05:12:09.849Z,72.38
2022-12-28T05:14:39.876Z,77.90
2022-12-28T05:17:09.006Z,76.93
2022-12-28T05:19:38.571Z,70.60
2022-12-28T05:22:13.300Z,73.80
2022-12-28T05:24:43.853Z,75.78
2022-12-28T05:27:14.346Z,71.30
2022-12-28T05:29:44.041Z,73.97
2022-12-28T05:32:13.658Z,71.63
2022-12-28T05:34:43.953Z,72.70
2022-12-28T05:37:17.013Z,68.28
2022-12-28T05:39:52.219Z,75.82
2022-12-28T05:42:22.299Z,66.82
2022-12-28T05:44:51.633Z,74.90
2022-12-28T05:47:21.253Z,71.10
2022-12-28T05:49:50.737Z,71.85
2022-12-28T05:52:20.410Z,64.90
2022-12-28T05:54:50.768Z,73.90
2022-12-28T05:57:20.115Z,66.70
2022-12-28T05:59:49.230Z,71.72
2022-12-28T06:02:24.421Z,75.43
2022-12-28T06:07:23.609Z,75.68
2022-12-28T06:09:53.796Z,75.70
2022-12-28T06:24:57.728Z,79.38
2022-12-28T06:27:34.386Z,80.50
2022-12-28T06:30:03.937Z,76.35
2022-12-28T06:32:33.703Z,79.75
2022-12-28T06:35:03.380Z,78.60
2022-12-28T06:37:33.080Z,71.90
2022-12-28T06:40:03.989Z,79.07
2022-12-28T06:42:34.213Z,76.60
2022-12-28T06:45:03.823Z,74.78
2022-12-28T06:47:34.464Z,75.32
2022-12-28T06:50:04.066Z,81.55
2022-12-28T06:52:35.052Z,74.90
2022-12-28T06:55:05.202Z,84.22
2022-12-28T06:57:35.652Z,74.55
2022-12-28T07:00:05.370Z,76.78
2022-12-28T07:02:34.982Z,75.25
2022-12-28T07:05:05.203Z,69.60
2022-12-28T07:07:35.201Z,76.03
2022-12-28T07:10:05.594Z,72.85
2022-12-28T07:12:34.871Z,69.43
2022-12-28T07:15:04.353Z,71.35
2022-12-28T07:17:33.527Z,72.20
2022-12-28T07:20:02.639Z,67.72
2022-12-28T07:22:32.130Z,69.53
2022-12-28T07:25:01.857Z,67.82
2022-12-28T07:27:31.270Z,59.83
2022-12-28T07:30:00.830Z,62.40
2022-12-28T07:32:30.298Z,61.00
2022-12-28T07:34:59.919Z,60.97
2022-12-28T07:37:31.240Z,67.45
2022-12-28T07:40:01.013Z,66.63
2022-12-28T07:42:33.156Z,65.72
2022-12-28T07:45:03.006Z,61.25
2022-12-28T07:47:32.659Z,64.72
2022-12-28T07:50:01.987Z,70.30
2022-12-28T07:52:31.379Z,62.25
2022-12-28T07:55:01.090Z,59.13
2022-12-28T07:57:30.733Z,59.08
2022-12-28T08:00:00.192Z,54.88
2022-12-28T08:02:29.929Z,58.55
2022-12-28T08:04:59.113Z,49.72
2022-12-28T08:07:28.490Z,53.88
2022-12-28T08:09:57.842Z,52.40
2022-12-28T08:12:27.495Z,47.75
2022-12-28T08:14:58.334Z,47.90
2022-12-28T08:17:27.568Z,50.67
2022-12-28T08:19:58.950Z,53.40
2022-12-28T08:22:28.576Z,49.78
2022-12-28T08:24:58.298Z,51.53
2022-12-28T08:27:27.461Z,48.42
2022-12-28T08:30:03.044Z,44.72
2022-12-28T08:32:32.757Z,43.70
2022-12-28T08:35:05.517Z,41.33
2022-12-28T08:37:36.080Z,43.33
2022-12-28T08:40:05.951Z,39.80
2022-12-28T08:42:35.600Z,38.25
2022-12-28T08:45:23.927Z,38.28
2022-12-28T08:47:56.774Z,36.88
2022-12-28T08:50:31.765Z,41.67
2022-12-28T08:53:01.199Z,36.77
2022-12-28T08:55:30.862Z,37.10
2022-12-28T08:58:00.862Z,37.53
2022-12-28T09:00:34.056Z,33.90
2022-12-28T09:03:04.175Z,34.45
2022-12-28T09:05:39.357Z,36.78
2022-12-28T09:08:10.167Z,35.88
2022-12-28T09:10:40.378Z,33.35
2022-12-28T09:13:10.378Z,32.35
2022-12-28T09:15:39.833Z,31.80
2022-12-28T09:18:09.401Z,33.60
2022-12-28T09:20:41.925Z,30.35
2022-12-28T09:23:14.782Z,28.67
2022-12-28T09:25:44.542Z,31.90
2022-12-28T09:28:13.723Z,29.35
2022-12-28T09:30:43.879Z,28.60
2022-12-28T09:33:31.856Z,29.20
2022-12-28T09:36:03.131Z,29.45
2022-12-28T09:38:32.903Z,27.98
2022-12-28T09:41:26.915Z,28.33
2022-12-28T09:43:59.052Z,30.88
2022-12-28T09:46:28.358Z,32.92
2022-12-28T09:48:58.273Z,30.80
2022-12-28T09:51:31.359Z,31.38
2022-12-28T09:54:01.600Z,30.42
2022-12-28T09:56:33.729Z,27.65
2022-12-28T09:59:04.571Z,33.58
2022-12-28T10:01:35.995Z,33.92
2022-12-28T10:04:07.582Z,34.25
2022-12-28T10:06:37.541Z,31.95
2022-12-28T10:09:07.495Z,31.27
2022-12-28T10:11:39.108Z,34.20
2022-12-28T10:14:19.556Z,33.95
2022-12-28T10:16:49.055Z,38.33
2022-12-28T10:19:24.992Z,39.38
2022-12-28T10:22:01.630Z,43.30
2022-12-28T10:24:32.620Z,38.22
2022-12-28T10:27:03.575Z,43.38
2022-12-28T10:29:33.287Z,42.05
2022-12-28T10:32:33.957Z,44.88
2022-12-28T10:35:04.484Z,46.72
2022-12-28T10:37:33.981Z,48.25
2022-12-28T10:40:04.552Z,44.85
2022-12-28T10:42:37.114Z,47.65
2022-12-28T10:45:17.864Z,48.67
2022-12-28T10:47:51.139Z,48.05
2022-12-28T10:50:40.257Z,50.95
2022-12-28T10:53:18.512Z,54.97
2022-12-28T10:55:47.772Z,58.40
2022-12-28T10:58:33.604Z,54.40
2022-12-28T11:01:04.011Z,63.50
2022-12-28T11:03:35.957Z,64.78
2022-12-28T11:06:12.304Z,66.60
2022-12-28T11:08:41.986Z,85.90
2022-12-28T11:11:30.107Z,84.47
2022-12-28T11:14:19.404Z,85.47
2022-12-28T11:16:48.838Z,97.53
2022-12-28T11:19:18.012Z,96.78
2022-12-28T11:21:47.242Z,98.10
2022-12-28T11:24:17.159Z,111.53
2022-12-28T11:26:47.801Z,103.35
2022-12-28T11:29:18.804Z,118.50
2022-12-28T11:32:05.110Z,116.63
2022-12-28T11:34:34.325Z,121.35
2022-12-28T11:37:04.103Z,127.13
2022-12-28T11:39:34.544Z,128.10
2022-12-28T11:42:37.380Z,133.95
2022-12-28T11:44:57.092Z,142.20
2022-12-28T11:47:34.195Z,144.13
2022-12-28T11:50:23.120Z,143.98
2022-12-28T11:52:52.570Z,152.85
2022-12-28T11:55:24.828Z,152.88
2022-12-28T11:57:55.641Z,159.60
2022-12-28T12:00:28.104Z,160.43
2022-12-28T12:03:04.317Z,162.02
2022-12-28T12:05:39.718Z,170.40
2022-12-28T12:08:11.987Z,168.27
2022-12-28T12:10:42.743Z,176.32
2022-12-28T12:13:27.219Z,185.95
2022-12-28T12:16:07.637Z,183.48
2022-12-28T12:18:41.285Z,184.25
2022-12-28T12:21:16.007Z,196.10
2022-12-28T12:23:56.015Z,206.20
2022-12-28T12:26:45.402Z,195.57
2022-12-28T12:29:25.394Z,205.98
2022-12-28T12:32:07.036Z,198.80
2022-12-28T12:34:44.549Z,204.18
2022-12-28T12:37:20.723Z,204.30
2022-12-28T12:42:36.883Z,209.98
2022-12-28T12:45:15.632Z,223.00
2022-12-28T12:48:03.243Z,219.88
2022-12-28T12:50:32.684Z,232.00
2022-12-28T12:53:08.917Z,224.95
2022-12-28T12:58:09.797Z,231.43
2022-12-28T13:00:48.652Z,227.95
2022-12-28T13:03:36.974Z,225.25
2022-12-28T13:06:06.371Z,228.98
2022-12-28T13:08:57.095Z,240.57
2022-12-28T13:11:30.403Z,234.00
2022-12-28T13:14:06.764Z,237.15
2022-12-28T13:16:35.981Z,239.05
2022-12-28T13:19:08.963Z,238.75
2022-12-28T13:21:45.262Z,242.23
2022-12-28T13:24:20.703Z,241.88
2022-12-28T13:26:50.550Z,241.88
2022-12-28T13:29:21.161Z,239.65
2022-12-28T13:31:50.535Z,254.75
2022-12-28T13:34:25.876Z,244.57
2022-12-28T13:37:06.398Z,255.77
2022-12-28T13:39:41.834Z,246.98
2022-12-28T13:42:32.728Z,254.95
2022-12-28T13:45:03.373Z,261.17
2022-12-28T13:47:33.538Z,260.17
2022-12-28T13:50:07.687Z,251.00
2022-12-28T13:52:52.028Z,257.15
2022-12-28T13:55:26.820Z,260.92
2022-12-28T13:57:59.890Z,255.57
2022-12-28T14:00:29.275Z,266.10
2022-12-28T14:02:58.820Z,261.60
2022-12-28T14:05:31.926Z,266.13
2022-12-28T14:08:01.671Z,270.02
2022-12-28T14:10:30.922Z,265.27
2022-12-28T14:13:00.051Z,264.48
2022-12-28T14:15:29.110Z,274.10
2022-12-28T14:17:58.722Z,278.50
2022-12-28T14:20:27.953Z,275.27
2022-12-28T14:22:57.618Z,282.08
2022-12-28T14:25:30.120Z,278.50
2022-12-28T14:28:03.177Z,292.23
2022-12-28T14:30:33.316Z,297.02
2022-12-28T14:33:07.091Z,292.45
2022-12-28T14:35:44.651Z,288.10
2022-12-28T14:38:15.670Z,283.38
2022-12-28T14:40:46.876Z,279.08
2022-12-28T14:43:19.206Z,273.60
2022-12-28T14:46:06.919Z,279.63
2022-12-28T14:48:43.044Z,263.45
2022-12-28T14:51:20.214Z,253.52
2022-12-28T14:54:06.722Z,253.10
2022-12-28T14:56:35.911Z,260.33
2022-12-28T14:59:08.031Z,247.98
2022-12-28T15:01:44.670Z,248.73
2022-12-28T15:04:36.793Z,251.77
2022-12-28T15:07:07.601Z,244.48
2022-12-28T15:09:37.408Z,237.75
2022-12-28T15:12:13.848Z,236.10
2022-12-28T15:14:43.278Z,246.57
2022-12-28T15:17:12.834Z,242.00
2022-12-28T15:19:43.246Z,238.65
2022-12-28T15:22:13.195Z,230.35
2022-12-28T15:24:46.196Z,245.77
2022-12-28T15:27:16.284Z,248.90
2022-12-28T15:30:05.071Z,238.32
2022-12-28T15:32:35.672Z,235.88
2022-12-28T15:35:04.901Z,241.50
2022-12-28T15:37:34.075Z,245.65
2022-12-28T15:40:03.256Z,241.50
2022-12-28T15:42:39.856Z,244.13
2022-12-28T15:45:10.690Z,244.55
2022-12-28T15:47:40.577Z,234.38
2022-12-28T15:50:09.903Z,234.18
2022-12-28T15:52:39.483Z,239.82
2022-12-28T15:55:08.825Z,234.05
2022-12-28T15:57:38.362Z,225.60
2022-12-28T16:00:08.318Z,233.80
2022-12-28T16:02:37.782Z,228.60
2022-12-28T16:05:07.816Z,229.55
2022-12-28T16:07:37.592Z,221.40
2022-12-28T16:10:07.322Z,223.50
2022-12-28T16:12:37.078Z,221.40
2022-12-28T16:15:06.960Z,230.35
2022-12-28T16:17:43.329Z,215.75
2022-12-28T16:20:16.718Z,226.88
2022-12-28T16:22:46.383Z,219.20
2022-12-28T16:25:15.830Z,216.60
2022-12-28T16:27:48.023Z,219.32
2022-12-28T16:30:17.688Z,213.52
2022-12-28T16:32:48.856Z,217.73
2022-12-28T16:35:18.118Z,211.30
2022-12-28T16:37:47.172Z,206.60
2022-12-28T16:40:16.401Z,208.65
2022-12-28T16:42:46.793Z,209.52
2022-12-28T16:45:16.214Z,207.85
2022-12-28T16:47:45.786Z,206.55
2022-12-28T16:50:15.508Z,195.25
2022-12-28T16:52:45.178Z,188.55
2022-12-28T16:55:14.999Z,195.90
2022-12-28T16:57:47.146Z,194.70
2022-12-28T17:00:19.433Z,190.30
2022-12-28T17:02:49.184Z,189.63
2022-12-28T17:05:19.338Z,182.93
2022-12-28T17:07:49.804Z,184.13
2022-12-28T17:10:19.340Z,180.80
2022-12-28T17:12:48.414Z,177.13
2022-12-28T17:15:17.953Z,179.35
2022-12-28T17:17:47.564Z,173.32
2022-12-28T17:20:17.473Z,176.23
2022-12-28T17:22:47.683Z,173.18
2022-12-28T17:25:16.871Z,167.82
2022-12-28T17:27:46.022Z,162.82
2022-12-28T17:30:15.270Z,175.43
2022-12-28T17:32:47.333Z,164.68
2022-12-28T17:35:16.891Z,163.70
2022-12-28T17:37:45.948Z,166.48
2022-12-28T17:40:15.537Z,167.13
2022-12-28T17:42:44.791Z,173.80
2022-12-28T17:45:13.917Z,164.65
2022-12-28T17:47:43.027Z,166.75
2022-12-28T17:50:12.650Z,166.50
2022-12-28T17:52:42.483Z,163.95
2022-12-28T17:55:12.321Z,168.43
2022-12-28T17:57:41.952Z,164.57
2022-12-28T18:00:11.593Z,163.93
2022-12-28T18:02:46.328Z,164.75
2022-12-28T18:05:16.380Z,168.20
2022-12-28T18:07:45.541Z,168.68
2022-12-28T18:10:15.134Z,169.05
2022-12-28T18:12:44.254Z,173.05
2022-12-28T18:15:13.253Z,162.18
2022-12-28T18:17:42.391Z,161.18
2022-12-28T18:20:13.072Z,162.80
2022-12-28T18:22:42.680Z,165.57
2022-12-28T18:25:12.304Z,171.85
2022-12-28T18:27:41.610Z,174.13
2022-12-28T18:30:10.937Z,166.30
2022-12-28T18:32:40.235Z,159.27
2022-12-28T18:35:13.235Z,156.85
2022-12-28T18:37:42.706Z,159.90
2022-12-28T18:40:12.575Z,156.63
2022-12-28T18:42:41.862Z,159.43
2022-12-28T18:45:11.681Z,149.35
2022-12-28T18:47:41.355Z,153.30
2022-12-28T18:50:11.068Z,152.80
2022-12-28T18:52:41.873Z,158.10
2022-12-28T18:55:11.787Z,155.93
2022-12-28T18:57:40.872Z,154.48
2022-12-28T19:00:11.345Z,154.52
2022-12-28T19:02:40.936Z,154.75
2022-12-28T19:05:12.438Z,147.55
2022-12-28T19:07:47.305Z,147.65
2022-12-28T19:10:21.819Z,149.02
2022-12-28T19:12:50.904Z,148.13
2022-12-28T19:15:20.348Z,147.77
2022-12-28T19:17:49.356Z,147.57
2022-12-28T19:20:18.554Z,154.38
2022-12-28T19:22:48.072Z,152.48
2022-12-28T19:25:17.171Z,147.98
2022-12-28T19:27:46.341Z,149.68
2022-12-28T19:30:16.045Z,145.88
2022-12-28T19:32:47.504Z,152.05
2022-12-28T19:35:16.790Z,153.93
2022-12-28T19:37:46.314Z,154.60
2022-12-28T19:40:15.713Z,156.15
2022-12-28T19:42:44.802Z,151.25
2022-12-28T19:45:14.131Z,161.35
2022-12-28T19:47:43.193Z,157.20
2022-12-28T19:50:12.900Z,162.32
2022-12-28T19:52:42.486Z,162.93
2022-12-28T19:55:11.583Z,154.75
2022-12-28T19:57:40.635Z,153.75
2022-12-28T20:00:10.460Z,158.98
2022-12-28T20:02:40.166Z,161.27
2022-12-28T20:05:10.537Z,163.02
2022-12-28T20:07:40.731Z,160.88
2022-12-28T20:10:10.419Z,160.05
2022-12-28T20:12:39.965Z,163.77
2022-12-28T20:15:09.192Z,163.38
2022-12-28T20:17:44.297Z,172.73
2022-12-28T20:20:16.868Z,167.77
2022-12-28T20:22:46.698Z,160.98
2022-12-28T20:25:16.307Z,164.63
2022-12-28T20:27:46.074Z,165.35
2022-12-28T20:30:16.099Z,163.35
2022-12-28T20:32:45.291Z,174.23
2022-12-28T20:35:14.464Z,162.63
2022-12-28T20:37:43.521Z,160.35
2022-12-28T20:40:14.738Z,173.45
2022-12-28T20:43:02.968Z,157.98
2022-12-28T20:45:35.286Z,158.63
2022-12-28T20:48:05.018Z,161.00
2022-12-28T20:50:34.637Z,151.82
2022-12-28T20:53:03.791Z,147.20
2022-12-28T20:55:32.908Z,148.25
2022-12-28T20:58:03.141Z,147.40
2022-12-28T21:00:32.382Z,150.63
2022-12-28T21:03:01.709Z,148.60
2022-12-28T21:05:30.909Z,147.07
2022-12-28T21:08:00.525Z,148.52
2022-12-28T21:10:29.944Z,158.13
2022-12-28T21:12:59.855Z,144.80
2022-12-28T21:15:29.442Z,143.55
2022-12-28T21:17:59.965Z,144.70
2022-12-28T21:20:34.024Z,147.40
2022-12-28T21:23:08.447Z,145.07
2022-12-28T21:25:40.716Z,138.18
2022-12-28T21:28:10.087Z,138.75
2022-12-28T21:30:39.855Z,143.80
2022-12-28T21:33:09.593Z,147.48
2022-12-28T21:35:39.314Z,142.18
2022-12-28T21:38:08.842Z,139.95
2022-12-28T21:40:37.919Z,133.40
2022-12-28T21:43:07.395Z,137.00
2022-12-28T21:45:37.010Z,137.32
2022-12-28T21:48:06.287Z,131.68
2022-12-28T21:50:35.788Z,133.82
2022-12-28T21:53:05.357Z,137.20
2022-12-28T21:55:45.405Z,125.10
2022-12-28T21:58:15.162Z,128.20
2022-12-28T22:01:03.042Z,131.15
2022-12-28T22:03:51.221Z,134.63
2022-12-28T22:06:21.067Z,124.50
2022-12-28T22:09:08.784Z,124.05
2022-12-28T22:11:56.894Z,132.27
2022-12-28T22:14:26.887Z,124.15
2022-12-28T22:16:56.127Z,121.38
2022-12-28T22:19:25.985Z,121.05
2022-12-28T22:21:56.467Z,123.68
2022-12-28T22:24:25.759Z,124.03
2022-12-28T22:26:54.904Z,116.90
2022-12-28T22:29:24.748Z,118.78
2022-12-28T22:31:53.827Z,126.88
2022-12-28T22:34:22.939Z,118.88
2022-12-28T22:36:52.505Z,125.95
2022-12-28T22:39:25.823Z,118.10
2022-12-28T22:41:54.968Z,116.72
2022-12-28T22:44:24.749Z,114.78
2022-12-28T22:46:54.329Z,113.85
2022-12-28T22:49:23.536Z,107.40
2022-12-28T22:51:52.680Z,115.30
2022-12-28T22:54:22.002Z,110.70
2022-12-28T22:56:51.066Z,107.53
2022-12-28T22:59:23.128Z,110.13
2022-12-28T23:01:52.943Z,104.75
2022-12-28T23:04:22.243Z,102.07
2022-12-28T23:06:52.048Z,101.90
2022-12-28T23:09:21.289Z,102.78
2022-12-28T23:11:51.168Z,104.10
2022-12-28T23:14:42.982Z,108.80
2022-12-28T23:17:13.719Z,104.05
2022-12-28T23:20:02.322Z,104.68
2022-12-28T23:23:12.671Z,97.10
2022-12-28T23:26:00.736Z,103.53
2022-12-28T23:28:30.408Z,107.10
2022-12-28T23:31:11.829Z,108.47
2022-12-28T23:33:41.022Z,101.45
2022-12-28T23:36:10.135Z,95.38
2022-12-28T23:38:39.712Z,102.75
2022-12-28T23:41:27.143Z,101.38
2022-12-28T23:43:56.766Z,97.32
2022-12-28T23:46:26.486Z,92.15
2022-12-28T23:48:55.744Z,96.60
2022-12-28T23:51:25.417Z,97.72
2022-12-28T23:53:54.501Z,94.53
2022-12-28T23:56:25.579Z,93.35
2022-12-28T23:58:55.256Z,96.53
